createdAt,value
2019-04-19T00:04:39.314Z,30.6
2019-04-19T00:07:33.792Z,30.6
2019-04-19T00:10:38.284Z,30.6
2019-04-19T00:13:28.324Z,30.7
2019-04-19T00:19:37.826Z,30.7
2019-04-19T00:25:15.615Z,30.8
2019-04-19T00:31:20.161Z,30.8
2019-04-19T00:34:06.434Z,30.9
2019-04-19T00:43:07.212Z,31.1
2019-04-19T00:46:08.839Z,31.2
2019-04-19T00:49:02.499Z,31.2
2019-04-19T00:51:59.686Z,31.2
2019-04-19T01:06:41.692Z,31.4
2019-04-19T01:12:44.790Z,31.6
2019-04-19T01:21:19.426Z,31.6
2019-04-19T01:36:04.227Z,31.8
2019-04-19T02:05:36.029Z,32.9
2019-04-19T02:14:35.438Z,33.2
2019-04-19T02:38:28.588Z,33.8
2019-04-19T03:16:43.324Z,34.4
2019-04-19T03:19:30.174Z,34.4
2019-04-19T03:22:27.959Z,34.5
2019-04-19T03:28:18.219Z,34.7
2019-04-19T03:34:40.470Z,34.8
2019-04-19T03:37:20.110Z,34.8
2019-04-19T03:40:22.947Z,34.9
2019-04-19T03:46:12.373Z,35
2019-04-19T03:49:06.021Z,35.1
2019-04-19T03:52:08.004Z,35.2
2019-04-19T03:54:53.561Z,35.4
2019-04-19T03:57:48.668Z,35.4
2019-04-19T04:00:36.562Z,35.5
2019-04-19T04:03:38.312Z,35.6
2019-04-19T04:06:34.753Z,35.6
2019-04-19T04:12:37.785Z,35.7
2019-04-19T04:15:36.858Z,35.8
2019-04-19T04:21:16.256Z,36.1
2019-04-19T04:24:20.616Z,36.2
2019-04-19T04:30:17.268Z,36.3
2019-04-19T04:33:12.908Z,36.4
2019-04-19T04:36:20.729Z,36.4
2019-04-19T04:42:07.726Z,36.5
2019-04-19T04:48:03.458Z,36.7
2019-04-19T04:51:04.271Z,36.8
2019-04-19T04:56:50.736Z,37
2019-04-19T05:02:51.083Z,37.1
2019-04-19T05:11:41.831Z,37.4
2019-04-19T05:14:35.929Z,37.4
2019-04-19T05:20:31.371Z,37.6
2019-04-19T05:23:25.897Z,37.6
2019-04-19T05:26:44.500Z,37.6
2019-04-19T05:29:19.504Z,37.7
2019-04-19T05:41:04.559Z,37.9
2019-04-19T05:44:18.139Z,38
2019-04-19T05:47:08.738Z,38
2019-04-19T05:50:03.957Z,38
2019-04-19T05:52:58.351Z,38.1
2019-04-19T05:58:47.963Z,38.2
2019-04-19T06:10:31.715Z,38.4
2019-04-19T06:13:21.995Z,38.5
2019-04-19T06:16:34.889Z,38.5
2019-04-19T06:19:30.932Z,38.5
2019-04-19T06:22:32.564Z,38.6
2019-04-19T06:28:28.387Z,38.7
2019-04-19T06:31:26.501Z,38.7
2019-04-19T06:34:19.562Z,38.8
2019-04-19T06:37:06.473Z,38.8
2019-04-19T06:40:03.673Z,38.8
2019-04-19T06:48:53.982Z,38.8
2019-04-19T06:54:43.054Z,38.9
2019-04-19T07:00:48.756Z,38.8
2019-04-19T07:03:32.156Z,38.9
2019-04-19T07:09:50.062Z,38.8
2019-04-19T07:12:39.895Z,38.8
2019-04-19T07:15:49.581Z,38.9
2019-04-19T07:18:28.501Z,38.9
2019-04-19T07:21:33.314Z,39
2019-04-19T07:24:33.228Z,39
2019-04-19T07:27:22.270Z,39
2019-04-19T07:30:05.563Z,38.9
2019-04-19T07:33:09.261Z,38.9
2019-04-19T07:36:16.765Z,38.9
2019-04-19T07:39:13.131Z,39
2019-04-19T07:42:16.724Z,39
2019-04-19T07:44:54.357Z,39
2019-04-19T07:50:53.474Z,38.9
2019-04-19T07:53:46.067Z,38.8
2019-04-19T07:59:59.147Z,38.8
2019-04-19T08:05:54.158Z,38.8
2019-04-19T08:14:47.670Z,38.7
2019-04-19T08:32:02.510Z,38.5
2019-04-19T08:35:02.363Z,38.4
2019-04-19T08:41:05.711Z,38.4
2019-04-19T08:44:04.604Z,38.4
2019-04-19T08:46:47.156Z,38.3
2019-04-19T08:52:41.690Z,38.3
2019-04-19T09:01:50.482Z,37.9
2019-04-19T09:04:43.729Z,37.6
2019-04-19T09:10:38.735Z,37.4
2019-04-19T09:13:37.551Z,37.6
2019-04-19T09:19:54.860Z,37.5
2019-04-19T09:22:25.246Z,37.4
2019-04-19T09:25:21.306Z,37.4
2019-04-19T09:28:30.631Z,37.4
2019-04-19T09:31:16.713Z,37.3
2019-04-19T09:34:03.663Z,37.2
2019-04-19T09:37:04.688Z,37.2
2019-04-19T09:40:02.561Z,37.1
2019-04-19T09:42:57.415Z,37
2019-04-19T09:49:00.657Z,36.6
2019-04-19T09:51:55.218Z,36.5
2019-04-19T09:55:03.095Z,36.5
2019-04-19T09:57:55.402Z,36.4
2019-04-19T10:03:36.788Z,36.3
2019-04-19T10:06:26.690Z,36.2
2019-04-19T10:09:24.085Z,36.2
2019-04-19T10:12:19.662Z,36
2019-04-19T10:15:25.043Z,36
2019-04-19T10:18:14.519Z,36
2019-04-19T10:21:17.924Z,35.9
2019-04-19T10:24:12.630Z,35.8
2019-04-19T10:27:05.674Z,35.7
2019-04-19T10:30:02.171Z,35.6
2019-04-19T10:32:58.512Z,35.6
2019-04-19T10:35:55.902Z,35.4
2019-04-19T10:38:54.952Z,35.3
2019-04-19T10:41:50.159Z,35.2
2019-04-19T10:44:47.804Z,35.2
2019-04-19T10:47:44.200Z,35.1
2019-04-19T10:50:45.603Z,35
2019-04-19T10:53:38.584Z,35
2019-04-19T10:56:34.564Z,34.8
2019-04-19T10:59:32.254Z,34.7
2019-04-19T11:02:29.738Z,34.6
2019-04-19T11:05:25.371Z,34.6
2019-04-19T11:08:22.633Z,34.5
2019-04-19T11:11:19.484Z,34.5
2019-04-19T11:14:16.626Z,34.4
2019-04-19T11:17:13.813Z,34.3
2019-04-19T11:20:22.534Z,34.3
2019-04-19T11:23:07.980Z,34.2
2019-04-19T11:26:04.996Z,34.1
2019-04-19T11:29:01.433Z,34
2019-04-19T11:31:59.759Z,34
2019-04-19T11:34:55.674Z,33.9
2019-04-19T11:49:42.490Z,33.8
2019-04-19T12:01:30.069Z,33.6
2019-04-19T12:04:26.012Z,33.6
2019-04-19T12:13:17.223Z,33.4
2019-04-19T12:16:13.511Z,33.4
2019-04-19T12:19:11.959Z,33.3
2019-04-19T12:30:58.847Z,33.3
2019-04-19T12:39:50.817Z,33.1
2019-04-19T12:48:41.602Z,33
2019-04-19T12:51:37.589Z,33.2
2019-04-19T13:06:23.366Z,32.9
2019-04-19T13:18:12.043Z,32.8
2019-04-19T13:21:08.152Z,32.8
2019-04-19T13:24:04.878Z,32.8
2019-04-19T13:27:01.689Z,32.8
2019-04-19T13:30:10.384Z,32.8
2019-04-19T13:32:56.493Z,32.8
2019-04-19T13:35:53.110Z,32.8
2019-04-19T13:41:47.172Z,32.7
2019-04-19T13:50:40.793Z,32.6
2019-04-19T14:02:27.079Z,32.6
2019-04-19T14:05:23.264Z,32.6
2019-04-19T14:08:19.993Z,32.5
2019-04-19T14:11:17.211Z,32.5
2019-04-19T14:14:14.168Z,32.5
2019-04-19T14:23:05.673Z,32.5
2019-04-19T14:31:55.930Z,32.3
2019-04-19T14:55:32.127Z,32.1
2019-04-19T14:58:28.842Z,32.2
2019-04-19T15:13:14.706Z,32
2019-04-19T15:22:06.143Z,32
2019-04-19T15:25:02.502Z,32
2019-04-19T15:27:59.193Z,32
2019-04-19T15:36:50.057Z,31.8
2019-04-19T15:39:47.122Z,31.8
2019-04-19T15:42:45.098Z,31.8
2019-04-19T15:45:41.110Z,31.7
2019-04-19T15:48:43.860Z,31.7
2019-04-19T15:51:37.704Z,31.7
2019-04-19T15:54:32.198Z,31.7
2019-04-19T15:57:30.235Z,31.6
2019-04-19T16:00:26.064Z,31.6
2019-04-19T16:03:22.890Z,31.6
2019-04-19T16:09:17.220Z,31.7
2019-04-19T16:12:13.913Z,31.7
2019-04-19T16:15:11.712Z,31.6
2019-04-19T16:21:05.361Z,31.6
2019-04-19T16:27:00.197Z,31.6
2019-04-19T16:29:58.006Z,31.6
2019-04-19T16:32:53.258Z,31.6
2019-04-19T16:35:49.943Z,31.6
2019-04-19T16:38:47.127Z,31.6
2019-04-19T16:41:44.854Z,31.5
2019-04-19T16:44:41.526Z,31.5
2019-04-19T16:47:38.035Z,31.5
2019-04-19T16:50:35.110Z,31.4
2019-04-19T16:53:31.961Z,31.4
2019-04-19T16:56:29.920Z,31.4
2019-04-19T16:59:25.974Z,31.4
2019-04-19T17:02:23.124Z,31.3
2019-04-19T17:08:17.689Z,31.2
2019-04-19T17:11:15.402Z,31.2
2019-04-19T17:17:08.725Z,31.2
2019-04-19T17:20:05.092Z,31.2
2019-04-19T17:23:02.281Z,31.1
2019-04-19T17:31:54.196Z,31
2019-04-19T17:34:50.131Z,31
2019-04-19T17:37:47.857Z,31
2019-04-19T17:40:44.931Z,31
2019-04-19T17:43:41.502Z,31
2019-04-19T17:46:38.220Z,30.9
2019-04-19T17:49:35.225Z,30.8
2019-04-19T17:52:34.286Z,30.8
2019-04-19T17:55:36.603Z,30.8
2019-04-19T18:01:24.264Z,30.8
2019-04-19T18:07:18.603Z,30.8
2019-04-19T18:10:16.650Z,30.8
2019-04-19T18:13:12.940Z,30.8
2019-04-19T18:16:08.951Z,30.7
2019-04-19T18:19:07.091Z,30.7
2019-04-19T18:22:11.766Z,30.6
2019-04-19T18:25:02.138Z,30.7
2019-04-19T18:30:57.138Z,30.6
2019-04-19T18:33:57.064Z,30.5
2019-04-19T18:39:44.712Z,30.5
2019-04-19T18:42:50.973Z,30.5
2019-04-19T18:45:40.919Z,30.4
2019-04-19T18:48:35.667Z,30.4
2019-04-19T18:51:38.448Z,30.4
2019-04-19T18:54:37.910Z,30.4
2019-04-19T18:57:26.500Z,30.4
2019-04-19T19:00:26.727Z,30.4
2019-04-19T19:06:19.813Z,30.3
2019-04-19T19:09:16.452Z,30.3
2019-04-19T19:12:14.687Z,30.3
2019-04-19T19:15:08.426Z,30.2
2019-04-19T19:18:05.834Z,30.2
2019-04-19T19:21:04.590Z,30.2
2019-04-19T19:24:23.168Z,30.2
2019-04-19T19:27:04.944Z,30.1
2019-04-19T19:29:54.248Z,30
2019-04-19T19:32:53.804Z,30
2019-04-19T19:38:46.756Z,29.9
2019-04-19T19:42:23.109Z,29.9
2019-04-19T19:44:47.848Z,29.9
2019-04-19T19:47:56.833Z,29.9
2019-04-19T19:53:57.949Z,29.9
2019-04-19T19:56:46.867Z,29.8
2019-04-19T20:05:22.107Z,29.8
2019-04-19T20:08:21.084Z,29.8
2019-04-19T20:11:20.295Z,29.9
2019-04-19T20:14:14.119Z,29.9
2019-04-19T20:17:08.227Z,30
2019-04-19T20:20:02.650Z,29.9
2019-04-19T20:26:08.420Z,29.9
2019-04-19T20:28:57.425Z,29.9
2019-04-19T20:31:50.531Z,29.9
2019-04-19T20:37:46.306Z,29.9
2019-04-19T20:40:49.638Z,30
2019-04-19T20:43:49.639Z,30
2019-04-19T20:46:35.418Z,30
2019-04-19T20:49:35.761Z,30
2019-04-19T20:52:38.995Z,29.9
2019-04-19T20:55:41.764Z,29.9
2019-04-19T20:58:31.788Z,30
2019-04-19T21:01:21.054Z,29.9
2019-04-19T21:07:17.991Z,29.9
2019-04-19T21:10:16.408Z,29.9
2019-04-19T21:13:12.133Z,30
2019-04-19T21:16:06.572Z,29.9
2019-04-19T21:19:06.293Z,29.9
2019-04-19T21:27:57.927Z,29.8
2019-04-19T21:30:54.605Z,29.8
2019-04-19T21:36:52.437Z,29.9
2019-04-19T21:39:44.728Z,29.9
2019-04-19T21:42:41.366Z,30
2019-04-19T21:45:41.686Z,29.9
2019-04-19T21:48:37.889Z,29.9
2019-04-19T21:51:33.383Z,29.9
2019-04-19T21:57:29.472Z,29.8
2019-04-19T22:00:24.788Z,29.8
2019-04-19T22:03:21.801Z,29.8
2019-04-19T22:09:17.025Z,29.8
2019-04-19T22:12:08.657Z,29.9
2019-04-19T22:15:10.030Z,29.9
2019-04-19T22:18:04.582Z,29.9
2019-04-19T22:21:02.853Z,29.8
2019-04-19T22:23:58.411Z,29.8
2019-04-19T22:26:56.283Z,29.8
2019-04-19T22:29:51.458Z,29.8
2019-04-19T22:32:52.974Z,29.8
2019-04-19T22:35:46.033Z,29.8
2019-04-19T22:38:46.783Z,29.8
2019-04-19T22:41:38.935Z,29.8
2019-04-19T22:47:33.680Z,29.7
2019-04-19T22:50:33.843Z,29.7
2019-04-19T22:53:31.087Z,29.7
2019-04-19T22:56:31.344Z,29.7
2019-04-19T22:59:21.927Z,29.7
2019-04-19T23:02:18.643Z,29.7
2019-04-19T23:05:14.964Z,29.7
2019-04-19T23:11:10.714Z,29.8
2019-04-19T23:14:05.629Z,29.8
2019-04-19T23:20:01.113Z,29.7
2019-04-19T23:26:04.895Z,29.7
2019-04-19T23:28:51.534Z,29.8
2019-04-19T23:31:51.015Z,29.8
2019-04-19T23:37:43.698Z,29.9
2019-04-19T23:40:39.629Z,30
2019-04-19T23:43:38.677Z,30
2019-04-19T23:46:35.554Z,30
2019-04-19T23:58:28.394Z,30.2
